createdAt,value
2022-10-14T00:01:24.835Z,21.52
2022-10-14T00:03:54.714Z,24.02
2022-10-14T00:06:29.805Z,26.33
2022-10-14T00:09:05.923Z,22.10
2022-10-14T00:11:36.039Z,24.95
2022-10-14T00:14:10.826Z,30.95
2022-10-14T00:16:43.373Z,23.48
2022-10-14T00:19:12.385Z,22.33
2022-10-14T00:21:44.995Z,24.95
2022-10-14T00:24:17.345Z,22.58
2022-10-14T00:26:46.378Z,26.73
2022-10-14T00:29:19.042Z,25.50
2022-10-14T00:31:47.996Z,35.53
2022-10-14T00:34:16.899Z,25.98
2022-10-14T00:36:44.859Z,23.33
2022-10-14T00:39:16.792Z,24.23
2022-10-14T00:41:45.615Z,26.25
2022-10-14T00:44:13.672Z,27.77
2022-10-14T00:46:48.560Z,32.08
2022-10-14T00:49:26.466Z,25.05
2022-10-14T00:52:18.093Z,27.90
2022-10-14T00:54:54.695Z,24.35
2022-10-14T00:57:23.999Z,24.75
2022-10-14T00:59:56.393Z,25.52
2022-10-14T01:02:24.945Z,25.73
2022-10-14T01:04:53.248Z,23.92
2022-10-14T01:07:39.322Z,25.33
2022-10-14T01:10:28.239Z,25.95
2022-10-14T01:13:31.974Z,26.23
2022-10-14T01:16:11.562Z,24.58
2022-10-14T01:19:21.780Z,24.15
2022-10-14T01:21:56.698Z,23.08
2022-10-14T01:24:43.966Z,26.10
2022-10-14T01:27:39.826Z,29.02
2022-10-14T01:30:33.233Z,30.05
2022-10-14T01:33:06.333Z,34.33
2022-10-14T01:35:47.743Z,32.75
2022-10-14T01:38:43.517Z,25.63
2022-10-14T01:41:33.915Z,28.10
2022-10-14T01:44:10.400Z,24.92
2022-10-14T01:46:45.898Z,30.92
2022-10-14T01:49:25.311Z,27.13
2022-10-14T01:52:02.333Z,22.77
2022-10-14T01:54:36.374Z,25.05
2022-10-14T01:57:16.330Z,28.90
2022-10-14T01:59:46.535Z,25.33
2022-10-14T02:02:15.040Z,30.63
2022-10-14T02:04:43.085Z,25.25
2022-10-14T02:07:40.220Z,23.33
2022-10-14T02:10:16.997Z,28.17
2022-10-14T02:13:07.423Z,24.05
2022-10-14T02:15:59.019Z,27.52
2022-10-14T02:18:41.438Z,30.90
2022-10-14T02:21:26.924Z,29.17
2022-10-14T02:24:05.282Z,29.65
2022-10-14T02:26:35.722Z,30.63
2022-10-14T02:29:06.102Z,33.13
2022-10-14T02:31:39.251Z,40.45
2022-10-14T02:34:12.596Z,49.33
2022-10-14T02:36:43.321Z,32.72
2022-10-14T02:39:15.834Z,33.40
2022-10-14T02:41:44.614Z,30.73
2022-10-14T02:44:14.851Z,26.77
2022-10-14T02:46:47.170Z,29.65
2022-10-14T02:49:17.056Z,29.33
2022-10-14T02:51:45.479Z,25.90
2022-10-14T02:54:13.795Z,27.95
2022-10-14T02:56:43.488Z,24.38
2022-10-14T02:59:11.397Z,26.52
2022-10-14T03:01:40.255Z,28.25
2022-10-14T03:04:10.606Z,25.33
2022-10-14T03:06:38.440Z,25.73
2022-10-14T03:09:07.915Z,27.25
2022-10-14T03:11:40.171Z,30.60
2022-10-14T03:14:12.672Z,29.27
2022-10-14T03:16:40.534Z,28.92
2022-10-14T03:19:08.832Z,30.35
2022-10-14T03:21:45.361Z,36.30
2022-10-14T03:24:19.340Z,28.92
2022-10-14T03:26:51.558Z,35.10
2022-10-14T03:29:25.517Z,34.88
2022-10-14T03:31:59.657Z,34.80
2022-10-14T03:34:50.578Z,32.53
2022-10-14T03:37:24.371Z,32.30
2022-10-14T03:39:55.527Z,35.00
2022-10-14T03:42:23.938Z,35.08
2022-10-14T03:44:52.690Z,39.47
2022-10-14T03:47:28.102Z,31.98
2022-10-14T03:49:56.533Z,30.65
2022-10-14T03:52:33.986Z,32.70
2022-10-14T03:55:08.084Z,38.65
2022-10-14T03:57:36.212Z,33.50
2022-10-14T04:00:07.227Z,36.40
2022-10-14T04:02:44.524Z,34.00
2022-10-14T04:05:34.094Z,36.05
2022-10-14T04:08:09.094Z,38.28
2022-10-14T04:10:38.840Z,32.70
2022-10-14T04:13:08.470Z,39.47
2022-10-14T04:15:39.068Z,32.80
2022-10-14T04:20:50.076Z,31.02
2022-10-14T04:23:21.387Z,40.50
2022-10-14T04:25:54.382Z,32.20
2022-10-14T04:28:23.872Z,33.15
2022-10-14T04:31:08.991Z,29.35
2022-10-14T04:33:50.073Z,31.17
2022-10-14T04:36:24.960Z,34.75
2022-10-14T04:38:53.066Z,37.08
2022-10-14T04:41:20.922Z,34.47
2022-10-14T04:43:50.895Z,36.17
2022-10-14T04:46:41.507Z,33.25
2022-10-14T04:49:10.879Z,30.58
2022-10-14T04:51:47.057Z,30.48
2022-10-14T04:54:24.302Z,28.00
2022-10-14T04:56:55.090Z,29.33
2022-10-14T04:59:23.199Z,30.48
2022-10-14T05:02:09.900Z,24.92
2022-10-14T05:04:47.312Z,22.02
2022-10-14T05:07:16.559Z,23.80
2022-10-14T05:09:49.649Z,22.92
2022-10-14T05:12:25.781Z,28.45
2022-10-14T05:14:59.690Z,23.25
2022-10-14T05:17:37.901Z,27.63
2022-10-14T05:20:07.677Z,24.95
2022-10-14T05:22:38.579Z,25.35
2022-10-14T05:25:07.303Z,26.70
2022-10-14T05:27:35.230Z,26.85
2022-10-14T05:30:05.895Z,23.67
2022-10-14T05:32:38.413Z,27.92
2022-10-14T05:35:08.789Z,25.38
2022-10-14T05:37:39.584Z,22.67
2022-10-14T05:40:09.286Z,27.63
2022-10-14T05:42:38.535Z,24.02
2022-10-14T05:45:07.562Z,21.70
2022-10-14T05:47:39.475Z,21.05
2022-10-14T05:50:15.865Z,22.95
2022-10-14T05:52:46.583Z,20.33
2022-10-14T05:55:29.244Z,22.33
2022-10-14T05:58:00.255Z,23.83
2022-10-14T06:00:34.748Z,19.85
2022-10-14T06:03:11.665Z,20.60
2022-10-14T06:05:41.440Z,17.52
2022-10-14T06:08:09.861Z,18.88
2022-10-14T06:10:39.524Z,20.75
2022-10-14T06:13:07.589Z,20.50
2022-10-14T06:15:38.471Z,19.65
2022-10-14T06:18:07.569Z,18.67
2022-10-14T06:20:35.709Z,18.83
2022-10-14T06:23:04.380Z,20.65
2022-10-14T06:25:32.451Z,22.27
2022-10-14T06:28:06.260Z,22.92
2022-10-14T06:30:34.418Z,17.05
2022-10-14T06:33:02.444Z,15.52
2022-10-14T06:35:30.571Z,18.60
2022-10-14T06:37:58.779Z,18.90
2022-10-14T06:40:26.849Z,20.25
2022-10-14T06:42:54.909Z,18.15
2022-10-14T06:45:24.304Z,19.98
2022-10-14T06:47:52.494Z,19.17
2022-10-14T06:50:20.916Z,17.02
2022-10-14T06:52:48.992Z,16.23
2022-10-14T06:55:17.361Z,18.80
2022-10-14T06:57:45.510Z,17.65
2022-10-14T07:00:15.535Z,18.23
2022-10-14T07:02:44.866Z,17.55
2022-10-14T07:05:14.488Z,18.27
2022-10-14T07:07:43.265Z,16.42
2022-10-14T07:10:11.637Z,19.05
2022-10-14T07:12:39.928Z,19.20
2022-10-14T07:15:09.377Z,15.98
2022-10-14T07:17:38.413Z,19.30
2022-10-14T07:20:07.525Z,19.08
2022-10-14T07:22:38.905Z,17.38
2022-10-14T07:27:37.000Z,16.55
2022-10-14T07:30:07.159Z,16.30
2022-10-14T07:32:37.503Z,15.55
2022-10-14T07:35:06.349Z,17.08
2022-10-14T07:37:34.405Z,13.20
2022-10-14T07:40:02.863Z,15.98
2022-10-14T07:42:31.217Z,18.20
2022-10-14T07:44:59.456Z,18.58
2022-10-14T07:47:27.806Z,15.40
2022-10-14T07:49:57.104Z,16.35
2022-10-14T07:52:25.449Z,16.60
2022-10-14T07:54:53.765Z,18.42
2022-10-14T07:57:24.368Z,20.83
2022-10-14T07:59:52.878Z,22.35
2022-10-14T08:02:21.465Z,20.17
2022-10-14T08:05:04.126Z,17.27
2022-10-14T08:07:42.899Z,15.45
2022-10-14T08:10:11.214Z,17.73
2022-10-14T08:12:40.065Z,23.52
2022-10-14T08:15:08.822Z,19.98
2022-10-14T08:17:36.844Z,19.27
2022-10-14T08:20:05.358Z,20.83
2022-10-14T08:22:33.621Z,20.23
2022-10-14T08:25:01.521Z,22.70
2022-10-14T08:27:29.555Z,23.48
2022-10-14T08:29:57.660Z,20.85
2022-10-14T08:32:25.942Z,23.67
2022-10-14T08:34:56.184Z,22.17
2022-10-14T08:37:24.271Z,20.85
2022-10-14T08:39:53.837Z,18.35
2022-10-14T08:43:02.377Z,22.35
2022-10-14T08:45:39.532Z,19.85
2022-10-14T08:48:20.621Z,20.63
2022-10-14T08:51:00.905Z,18.90
2022-10-14T08:53:38.862Z,24.25
2022-10-14T08:56:10.145Z,19.38
2022-10-14T08:58:41.613Z,20.55
2022-10-14T09:01:25.168Z,19.65
2022-10-14T09:04:06.367Z,18.98
2022-10-14T09:06:40.599Z,18.65
2022-10-14T09:09:43.696Z,22.38
2022-10-14T09:12:20.925Z,21.35
2022-10-14T09:15:12.648Z,20.13
2022-10-14T09:18:10.445Z,22.45
2022-10-14T09:20:41.663Z,23.98
2022-10-14T09:23:24.878Z,23.65
2022-10-14T09:26:17.684Z,20.63
2022-10-14T09:28:46.202Z,23.95
2022-10-14T09:31:15.222Z,22.52
2022-10-14T09:33:45.090Z,22.83
2022-10-14T09:36:22.392Z,23.27
2022-10-14T09:38:53.252Z,21.27
2022-10-14T09:41:30.891Z,23.30
2022-10-14T09:44:26.335Z,22.15
2022-10-14T09:47:09.346Z,18.67
2022-10-14T09:49:46.198Z,23.27
2022-10-14T09:52:26.118Z,19.67
2022-10-14T09:55:03.637Z,19.90
2022-10-14T09:57:33.294Z,21.75
2022-10-14T10:00:06.706Z,20.40
2022-10-14T10:02:47.061Z,24.40
2022-10-14T10:05:32.619Z,24.13
2022-10-14T10:08:14.700Z,21.63
2022-10-14T10:11:02.007Z,20.23
2022-10-14T10:13:45.480Z,20.43
2022-10-14T10:16:19.546Z,20.05
2022-10-14T10:18:48.547Z,25.45
2022-10-14T10:21:30.381Z,25.02
2022-10-14T10:24:03.622Z,27.05
2022-10-14T10:26:34.857Z,25.45
2022-10-14T10:29:05.548Z,25.77
2022-10-14T10:31:46.771Z,26.43
2022-10-14T10:34:59.309Z,23.38
2022-10-14T10:37:38.583Z,23.27
2022-10-14T10:40:25.002Z,22.90
2022-10-14T10:43:20.382Z,25.25
2022-10-14T10:46:07.663Z,30.85
2022-10-14T10:49:06.358Z,28.92
2022-10-14T10:52:21.991Z,31.23
2022-10-14T10:55:04.423Z,26.63
2022-10-14T10:57:37.046Z,32.25
2022-10-14T11:00:21.214Z,22.30
2022-10-14T11:03:10.888Z,27.67
2022-10-14T11:05:57.245Z,25.35
2022-10-14T11:09:12.011Z,24.30
2022-10-14T11:12:13.380Z,27.05
2022-10-14T11:15:24.079Z,25.05
2022-10-14T11:18:46.565Z,23.38
2022-10-14T11:24:17.659Z,24.35
2022-10-14T11:27:24.845Z,22.73
2022-10-14T11:30:19.245Z,24.65
2022-10-14T11:33:09.843Z,25.08
2022-10-14T11:36:31.736Z,27.02
2022-10-14T11:39:42.523Z,24.90
2022-10-14T11:42:39.900Z,24.30
2022-10-14T11:45:28.818Z,25.85
2022-10-14T11:48:12.550Z,23.00
2022-10-14T11:50:49.531Z,27.02
2022-10-14T11:53:25.187Z,22.20
2022-10-14T11:56:39.787Z,27.23
2022-10-14T11:59:37.078Z,28.10
2022-10-14T12:02:56.273Z,26.92
2022-10-14T12:05:51.434Z,25.83
2022-10-14T12:08:40.670Z,18.98
2022-10-14T12:11:31.391Z,26.20
2022-10-14T12:14:42.769Z,22.10
2022-10-14T12:17:46.045Z,21.92
2022-10-14T12:20:38.349Z,21.63
2022-10-14T12:23:12.781Z,24.02
2022-10-14T12:26:01.498Z,22.30
2022-10-14T12:28:37.693Z,25.27
2022-10-14T12:31:42.130Z,26.70
2022-10-14T12:34:21.632Z,21.52
2022-10-14T12:36:50.890Z,26.08
2022-10-14T12:39:18.909Z,29.40
2022-10-14T12:41:59.718Z,33.25
2022-10-14T12:44:52.196Z,28.97
2022-10-14T12:47:36.353Z,31.10
2022-10-14T12:50:16.427Z,25.83
2022-10-14T12:52:47.911Z,25.30
2022-10-14T12:55:20.286Z,27.33
2022-10-14T12:58:04.709Z,29.23
2022-10-14T13:00:40.921Z,29.58
2022-10-14T13:03:25.389Z,27.48
2022-10-14T13:06:14.947Z,28.75
2022-10-14T13:08:43.184Z,27.00
2022-10-14T13:11:28.292Z,28.20
2022-10-14T13:14:03.042Z,25.35
2022-10-14T13:16:34.000Z,29.42
2022-10-14T13:19:05.110Z,34.83
2022-10-14T13:21:36.407Z,35.88
2022-10-14T13:24:32.349Z,31.65
2022-10-14T13:27:56.359Z,39.90
2022-10-14T13:30:49.619Z,31.13
2022-10-14T13:33:40.757Z,30.70
2022-10-14T13:36:22.466Z,32.10
2022-10-14T13:39:00.634Z,34.35
2022-10-14T13:41:31.463Z,51.38
2022-10-14T13:44:01.161Z,40.55
2022-10-14T13:46:41.246Z,39.40
2022-10-14T13:49:18.740Z,34.70
2022-10-14T13:51:59.824Z,37.90
2022-10-14T13:54:33.061Z,35.20
2022-10-14T13:57:42.801Z,35.15
2022-10-14T14:00:38.484Z,30.80
2022-10-14T14:02:55.896Z,38.03
2022-10-14T14:05:36.234Z,33.45
2022-10-14T14:08:35.354Z,25.58
2022-10-14T14:11:16.048Z,29.90
2022-10-14T14:14:08.614Z,27.92
2022-10-14T14:19:28.773Z,29.38
2022-10-14T14:22:30.628Z,28.33
2022-10-14T14:25:40.251Z,28.23
2022-10-14T14:28:18.580Z,26.13
2022-10-14T14:30:55.132Z,32.50
2022-10-14T14:33:35.419Z,28.40
2022-10-14T14:36:18.086Z,31.00
2022-10-14T14:39:01.246Z,26.50
2022-10-14T14:41:31.994Z,26.33
2022-10-14T14:44:26.131Z,32.10
2022-10-14T14:47:00.725Z,28.25
2022-10-14T14:49:40.032Z,25.77
2022-10-14T14:52:11.895Z,28.00
2022-10-14T14:55:18.720Z,33.10
2022-10-14T14:57:47.145Z,28.33
2022-10-14T15:00:21.274Z,28.55
2022-10-14T15:02:51.360Z,29.20
2022-10-14T15:05:20.592Z,26.02
2022-10-14T15:07:50.207Z,26.40
2022-10-14T15:10:28.746Z,34.28
2022-10-14T15:13:02.556Z,35.25
2022-10-14T15:15:35.031Z,33.88
2022-10-14T15:18:28.269Z,43.10
2022-10-14T15:21:16.842Z,39.30
2022-10-14T15:23:50.858Z,33.88
2022-10-14T15:26:36.413Z,34.33
2022-10-14T15:32:02.095Z,43.22
2022-10-14T15:34:30.193Z,59.58
2022-10-14T15:36:58.325Z,65.88
2022-10-14T15:39:26.549Z,71.22
2022-10-14T15:41:54.676Z,65.82
2022-10-14T15:44:22.553Z,55.40
2022-10-14T15:47:10.031Z,56.78
2022-10-14T15:49:45.973Z,56.05
2022-10-14T15:52:19.447Z,47.92
2022-10-14T15:54:50.925Z,44.65
2022-10-14T15:57:18.954Z,48.17
2022-10-14T15:59:52.194Z,48.03
2022-10-14T16:02:33.568Z,48.85
2022-10-14T16:07:50.515Z,58.65
2022-10-14T16:10:22.175Z,58.17
2022-10-14T16:12:51.195Z,63.45
2022-10-14T16:15:42.430Z,62.67
2022-10-14T16:18:10.339Z,68.07
2022-10-14T16:20:38.894Z,70.28
2022-10-14T16:23:08.691Z,74.45
2022-10-14T16:25:44.640Z,75.63
2022-10-14T16:28:14.050Z,76.13
2022-10-14T16:30:49.476Z,73.65
2022-10-14T16:33:19.467Z,74.05
2022-10-14T16:35:54.218Z,88.63
2022-10-14T16:38:24.495Z,85.68
2022-10-14T16:41:02.499Z,76.07
2022-10-14T16:43:30.803Z,72.28
2022-10-14T16:46:03.700Z,68.88
2022-10-14T16:48:34.791Z,68.35
2022-10-14T16:51:03.536Z,72.43
2022-10-14T16:53:41.207Z,71.50
2022-10-14T16:56:39.965Z,73.07
2022-10-14T16:59:08.426Z,71.90
2022-10-14T17:01:36.656Z,74.97
2022-10-14T17:04:09.366Z,73.68
2022-10-14T17:06:37.491Z,101.47
2022-10-14T17:09:05.712Z,83.07
2022-10-14T17:11:34.731Z,91.55
2022-10-14T17:14:04.623Z,80.20
2022-10-14T17:16:33.039Z,75.95
2022-10-14T17:19:01.682Z,69.60
2022-10-14T17:21:29.864Z,82.32
2022-10-14T17:24:02.651Z,75.82
2022-10-14T17:26:33.338Z,69.75
2022-10-14T17:29:01.945Z,71.45
2022-10-14T17:31:30.934Z,65.95
2022-10-14T17:34:00.321Z,71.97
2022-10-14T17:36:30.826Z,99.30
2022-10-14T17:39:00.425Z,72.55
2022-10-14T17:41:30.675Z,74.10
2022-10-14T17:44:01.610Z,81.38
2022-10-14T17:46:31.486Z,74.13
2022-10-14T17:49:04.282Z,71.53
2022-10-14T17:51:33.305Z,74.10
2022-10-14T17:54:05.491Z,72.13
2022-10-14T17:56:36.583Z,71.40
2022-10-14T17:59:10.594Z,69.20
2022-10-14T18:04:27.096Z,66.70
2022-10-14T18:06:55.043Z,61.40
2022-10-14T18:09:24.121Z,57.60
2022-10-14T18:12:09.207Z,61.85
2022-10-14T18:14:40.869Z,63.03
2022-10-14T18:17:12.975Z,65.90
2022-10-14T18:19:42.359Z,68.32
2022-10-14T18:22:11.479Z,67.10
2022-10-14T18:24:40.138Z,62.92
2022-10-14T18:27:08.305Z,67.65
2022-10-14T18:29:36.437Z,63.47
2022-10-14T18:32:06.046Z,62.25
2022-10-14T18:34:34.324Z,63.00
2022-10-14T18:37:02.253Z,64.65
2022-10-14T18:39:30.474Z,65.00
2022-10-14T18:41:58.569Z,72.82
2022-10-14T18:44:26.444Z,64.93
2022-10-14T18:46:54.737Z,60.00
2022-10-14T18:49:25.188Z,65.65
2022-10-14T18:51:55.363Z,61.50
2022-10-14T18:54:26.796Z,58.55
2022-10-14T18:56:55.896Z,63.67
2022-10-14T18:59:24.532Z,68.30
2022-10-14T19:01:54.172Z,83.28
2022-10-14T19:04:26.867Z,81.60
2022-10-14T19:06:54.993Z,74.00
2022-10-14T19:09:29.573Z,66.05
2022-10-14T19:12:21.286Z,74.65
2022-10-14T19:14:49.589Z,70.55
2022-10-14T19:17:17.875Z,66.65
2022-10-14T19:19:45.965Z,72.85
2022-10-14T19:22:14.998Z,70.97
2022-10-14T19:24:43.315Z,73.50
2022-10-14T19:27:11.233Z,65.93
2022-10-14T19:29:39.277Z,69.32
2022-10-14T19:32:07.238Z,68.85
2022-10-14T19:34:35.128Z,73.07
2022-10-14T19:37:03.363Z,71.30
2022-10-14T19:39:31.443Z,67.15
2022-10-14T19:41:59.697Z,69.43
2022-10-14T19:44:27.881Z,72.63
2022-10-14T19:46:56.094Z,69.50
2022-10-14T19:49:24.006Z,73.43
2022-10-14T19:51:52.174Z,64.25
2022-10-14T19:54:20.428Z,75.43
2022-10-14T19:56:48.538Z,73.35
2022-10-14T19:59:17.002Z,70.05
2022-10-14T20:01:45.392Z,66.97
2022-10-14T20:04:13.827Z,66.03
2022-10-14T20:06:43.142Z,62.10
2022-10-14T20:09:14.953Z,61.33
2022-10-14T20:11:43.449Z,62.83
2022-10-14T20:14:11.341Z,57.78
2022-10-14T20:16:39.393Z,56.53
2022-10-14T20:19:07.344Z,60.13
2022-10-14T20:21:35.336Z,55.97
2022-10-14T20:24:03.528Z,51.58
2022-10-14T20:26:33.303Z,56.13
2022-10-14T20:29:01.350Z,55.80
2022-10-14T20:31:29.636Z,58.83
2022-10-14T20:33:57.917Z,52.60
2022-10-14T20:36:25.965Z,49.60
2022-10-14T20:38:54.222Z,45.88
2022-10-14T20:41:27.352Z,45.25
2022-10-14T20:43:56.424Z,54.78
2022-10-14T20:46:25.249Z,47.85
2022-10-14T20:48:58.370Z,50.10
2022-10-14T20:51:26.627Z,40.40
2022-10-14T20:54:01.727Z,46.30
2022-10-14T20:56:34.431Z,47.97
2022-10-14T20:59:07.584Z,46.38
2022-10-14T21:01:37.988Z,47.15
2022-10-14T21:04:07.858Z,46.15
2022-10-14T21:06:36.532Z,41.15
2022-10-14T21:09:05.323Z,42.05
2022-10-14T21:11:33.322Z,41.15
2022-10-14T21:14:01.782Z,43.60
2022-10-14T21:16:33.826Z,41.92
2022-10-14T21:19:07.622Z,39.13
2022-10-14T21:21:43.185Z,41.00
2022-10-14T21:24:18.553Z,40.63
2022-10-14T21:26:49.484Z,38.35
2022-10-14T21:29:21.766Z,38.33
2022-10-14T21:31:50.411Z,35.85
2022-10-14T21:34:18.547Z,38.38
2022-10-14T21:39:18.600Z,39.60
2022-10-14T21:41:46.621Z,36.78
2022-10-14T21:44:22.260Z,31.85
2022-10-14T21:46:50.310Z,34.88
2022-10-14T21:49:18.563Z,38.25
2022-10-14T21:51:46.887Z,33.72
2022-10-14T21:54:15.241Z,33.80
2022-10-14T21:56:43.196Z,35.25
2022-10-14T21:59:12.655Z,26.98
2022-10-14T22:01:42.307Z,29.70
2022-10-14T22:04:14.059Z,28.67
2022-10-14T22:09:10.616Z,26.63
2022-10-14T22:11:41.442Z,29.88
2022-10-14T22:14:17.511Z,26.63
2022-10-14T22:16:47.794Z,28.77
2022-10-14T22:19:16.011Z,25.60
2022-10-14T22:21:46.505Z,25.63
2022-10-14T22:24:14.990Z,29.10
2022-10-14T22:26:43.011Z,26.02
2022-10-14T22:29:16.922Z,23.05
2022-10-14T22:31:46.393Z,26.10
2022-10-14T22:34:17.050Z,26.45
2022-10-14T22:36:46.089Z,26.97
2022-10-14T22:39:16.871Z,23.48
2022-10-14T22:41:44.827Z,25.02
2022-10-14T22:44:12.985Z,28.73
2022-10-14T22:46:41.318Z,23.77
2022-10-14T22:49:09.363Z,23.25
2022-10-14T22:51:43.277Z,30.33
2022-10-14T22:54:11.903Z,23.90
2022-10-14T22:56:40.335Z,31.63
2022-10-14T22:59:11.741Z,27.88
2022-10-14T23:01:42.133Z,26.17
2022-10-14T23:04:11.656Z,21.05
2022-10-14T23:06:40.790Z,23.13
2022-10-14T23:09:08.746Z,23.40
2022-10-14T23:11:36.777Z,23.98
2022-10-14T23:14:07.204Z,21.50
2022-10-14T23:16:36.450Z,26.27
2022-10-14T23:19:05.015Z,21.10
2022-10-14T23:21:37.198Z,26.40
2022-10-14T23:24:10.680Z,25.27
2022-10-14T23:26:39.353Z,26.17
2022-10-14T23:29:11.703Z,21.65
2022-10-14T23:31:41.681Z,22.35
2022-10-14T23:34:14.536Z,25.92
2022-10-14T23:36:43.118Z,25.27
2022-10-14T23:39:11.263Z,22.65
2022-10-14T23:41:39.506Z,28.45
2022-10-14T23:44:07.532Z,21.80
2022-10-14T23:46:35.382Z,22.98
2022-10-14T23:49:24.939Z,20.70
2022-10-14T23:51:51.267Z,26.55
2022-10-14T23:54:19.942Z,21.63
2022-10-14T23:56:47.924Z,19.40
2022-10-14T23:59:16.027Z,22.10
